Time;durP1;ratioP1;P1;durP2;ratioP2;P2;SDS_P1;SDS_P2;PMS_P1;PMS_P2;Temp;Humidity;BMP_temperature;BMP_pressure;BME280_temperature;BME280_humidity;BME280_pressure;Samples;Min_cycle;Max_cycle;Signal;HPM_P1;HPM_P2
2022/03/17 00:02:05;;;;;;;;;;;23.00;30.20;;;;;;4874564;29;19960;-60
2022/03/17 00:04:32;;;;;;;;;;;23.00;30.20;;;;;;4874229;29;19928;-61
2022/03/17 00:07:00;;;;;;;;;;;23.00;30.20;;;;;;4873642;29;19928;-60
2022/03/17 00:09:27;;;;;;;;;;;23.00;30.20;;;;;;4874175;29;19928;-60
2022/03/17 00:11:54;;;;;;;;;;;23.00;30.20;;;;;;4874374;29;20412;-60
2022/03/17 00:14:21;;;;;;;;;;;23.00;30.20;;;;;;4873504;29;19928;-60
2022/03/17 00:16:48;;;;;;;;;;;23.00;30.20;;;;;;4873866;29;19932;-60
2022/03/17 00:19:15;;;;;;;;;;;23.00;30.20;;;;;;4874139;29;19928;-60
2022/03/17 00:21:42;;;;;;;;;;;23.00;30.20;;;;;;4872895;29;19995;-60
2022/03/17 00:24:09;;;;;;;;;;;23.00;30.20;;;;;;4888682;29;20210;-60
2022/03/17 00:26:37;;;;;;;;;;;23.00;30.20;;;;;;4874458;29;20187;-60
2022/03/17 00:29:07;;;;;;;;;;;23.00;30.20;;;;;;4873840;29;19932;-60
2022/03/17 00:31:37;;;;;;;;;;;23.00;30.20;;;;;;4874188;29;19928;-60
2022/03/17 00:34:05;;;;;;;;;;;23.00;30.20;;;;;;4874261;29;20015;-60
2022/03/17 00:36:34;;;;;;;;;;;23.00;30.20;;;;;;4874043;29;20410;-60
2022/03/17 00:39:04;;;;;;;;;;;22.90;30.10;;;;;;4874034;29;19928;-60
2022/03/17 00:41:31;;;;;;;;;;;23.00;30.20;;;;;;4869673;29;19934;-60
2022/03/17 00:43:58;;;;;;;;;;;22.90;30.10;;;;;;4874246;29;19992;-60
2022/03/17 00:46:25;;;;;;;;;;;22.90;30.20;;;;;;4872981;29;20026;-60
2022/03/17 00:48:52;;;;;;;;;;;22.90;30.20;;;;;;4874293;29;19974;-61
2022/03/17 00:51:19;;;;;;;;;;;22.90;30.20;;;;;;4873648;29;20118;-60
2022/03/17 00:53:47;;;;;;;;;;;22.90;30.20;;;;;;4873705;29;20457;-60
2022/03/17 00:56:14;;;;;;;;;;;22.90;30.20;;;;;;4876915;29;19983;-60
2022/03/17 00:58:45;;;;;;;;;;;22.90;30.20;;;;;;4889757;29;19979;-60
2022/03/17 01:01:14;;;;;;;;;;;22.90;30.20;;;;;;4876119;29;19943;-60
2022/03/17 01:03:42;;;;;;;;;;;22.90;30.20;;;;;;4872618;29;20014;-60
2022/03/17 01:06:10;;;;;;;;;;;22.90;30.20;;;;;;4872659;29;19928;-60
2022/03/17 01:08:37;;;;;;;;;;;22.90;30.20;;;;;;4873456;29;20382;-60
2022/03/17 01:11:05;;;;;;;;;;;22.80;30.10;;;;;;4873243;29;19932;-60
2022/03/17 01:13:32;;;;;;;;;;;22.90;30.20;;;;;;4872940;29;19976;-60
2022/03/17 01:15:59;;;;;;;;;;;22.90;30.20;;;;;;4873112;29;19939;-60
2022/03/17 01:18:26;;;;;;;;;;;22.90;30.20;;;;;;4873294;29;19928;-60
2022/03/17 01:20:53;;;;;;;;;;;22.90;30.20;;;;;;4871926;29;20346;-60
2022/03/17 01:23:20;;;;;;;;;;;22.80;30.10;;;;;;4872788;29;20437;-60
2022/03/17 01:25:47;;;;;;;;;;;22.80;30.70;;;;;;4872303;29;20267;-61
2022/03/17 01:28:14;;;;;;;;;;;22.90;30.20;;;;;;4872881;29;19928;-60
2022/03/17 01:30:41;;;;;;;;;;;22.80;30.10;;;;;;4873003;29;19936;-60
2022/03/17 01:33:08;;;;;;;;;;;22.80;30.10;;;;;;4872431;29;19934;-60
2022/03/17 01:35:35;;;;;;;;;;;22.80;30.10;;;;;;4888748;29;19987;-60
2022/03/17 01:38:02;;;;;;;;;;;22.80;30.10;;;;;;4891982;29;20297;-60
2022/03/17 01:40:29;;;;;;;;;;;22.80;30.10;;;;;;4891162;29;19928;-60
2022/03/17 01:42:56;;;;;;;;;;;22.80;30.20;;;;;;4892004;29;19936;-60
2022/03/17 01:45:25;;;;;;;;;;;22.80;30.20;;;;;;4891398;29;19987;-60
2022/03/17 01:47:52;;;;;;;;;;;22.80;30.20;;;;;;4890309;29;19983;-60
2022/03/17 01:50:19;;;;;;;;;;;22.80;30.20;;;;;;4891829;29;19928;-60
2022/03/17 01:52:46;;;;;;;;;;;22.80;30.10;;;;;;4891403;29;20006;-60
2022/03/17 01:55:14;;;;;;;;;;;22.80;30.20;;;;;;4891439;29;19935;-60
2022/03/17 01:57:42;;;;;;;;;;;22.80;30.20;;;;;;4891392;29;20018;-60
2022/03/17 02:00:13;;;;;;;;;;;22.80;30.20;;;;;;4891039;29;19927;-60
2022/03/17 02:02:41;;;;;;;;;;;22.80;30.20;;;;;;4891577;29;20205;-60
2022/03/17 02:05:08;;;;;;;;;;;22.70;30.10;;;;;;4890436;29;19935;-60
2022/03/17 02:07:35;;;;;;;;;;;22.70;30.10;;;;;;4891483;29;20144;-60
2022/03/17 02:10:04;;;;;;;;;;;22.70;30.10;;;;;;4890637;29;19960;-60
2022/03/17 02:15:17;;;;;;;;;;;22.80;30.20;;;;;;4891495;29;19979;-60
2022/03/17 02:17:44;;;;;;;;;;;22.70;30.10;;;;;;4890331;29;19978;-60
2022/03/17 02:20:12;;;;;;;;;;;22.70;30.10;;;;;;4890930;29;19963;-60
2022/03/17 02:22:44;;;;;;;;;;;22.70;30.10;;;;;;4890759;29;20382;-60
2022/03/17 02:27:59;;;;;;;;;;;22.70;30.10;;;;;;4891190;29;19971;-61
2022/03/17 02:30:26;;;;;;;;;;;22.70;30.10;;;;;;4891042;29;19974;-60
2022/03/17 02:33:06;;;;;;;;;;;22.70;30.10;;;;;;4889847;29;19971;-60
2022/03/17 02:35:37;;;;;;;;;;;22.70;30.20;;;;;;4890404;29;20220;-60
2022/03/17 02:38:05;;;;;;;;;;;22.70;30.20;;;;;;4891373;29;20074;-61
2022/03/17 02:40:33;;;;;;;;;;;22.70;30.20;;;;;;4890507;29;19931;-60
2022/03/17 02:43:01;;;;;;;;;;;22.70;30.20;;;;;;4890366;29;19983;-60
2022/03/17 02:45:28;;;;;;;;;;;22.70;30.20;;;;;;4892694;29;19964;-60
2022/03/17 02:47:55;;;;;;;;;;;22.70;30.20;;;;;;4894539;29;19981;-60
2022/03/17 02:50:23;;;;;;;;;;;22.70;30.20;;;;;;4894125;29;20027;-60
2022/03/17 02:52:50;;;;;;;;;;;22.60;30.10;;;;;;4893979;29;20366;-60
2022/03/17 02:55:17;;;;;;;;;;;22.70;30.20;;;;;;4894426;29;19932;-60
2022/03/17 02:57:45;;;;;;;;;;;22.70;30.20;;;;;;4894841;29;19931;-60
2022/03/17 03:00:13;;;;;;;;;;;22.60;30.10;;;;;;4893798;29;20785;-60
2022/03/17 03:02:40;;;;;;;;;;;22.70;30.20;;;;;;4894850;29;19995;-61
2022/03/17 03:05:08;;;;;;;;;;;22.60;30.10;;;;;;4894473;29;19928;-61
2022/03/17 03:07:36;;;;;;;;;;;22.70;30.20;;;;;;4894292;29;19979;-60
2022/03/17 03:10:03;;;;;;;;;;;22.60;30.10;;;;;;4894368;29;19957;-60
2022/03/17 03:12:30;;;;;;;;;;;22.60;30.10;;;;;;4892557;29;20160;-60
2022/03/17 03:14:57;;;;;;;;;;;22.60;30.10;;;;;;4894070;29;19932;-60
2022/03/17 03:17:25;;;;;;;;;;;22.60;30.10;;;;;;4893857;29;19999;-60
2022/03/17 03:19:53;;;;;;;;;;;22.60;30.10;;;;;;4894082;29;19991;-60
2022/03/17 03:22:20;;;;;;;;;;;22.60;30.10;;;;;;4893843;29;20377;-60
2022/03/17 03:24:47;;;;;;;;;;;22.60;30.10;;;;;;4893673;29;19970;-60
2022/03/17 03:27:14;;;;;;;;;;;22.60;30.10;;;;;;4894548;29;20397;-60
2022/03/17 03:29:41;;;;;;;;;;;22.60;30.10;;;;;;4893343;29;19932;-60
2022/03/17 03:32:08;;;;;;;;;;;22.60;30.20;;;;;;4894110;29;19963;-60
2022/03/17 03:34:35;;;;;;;;;;;22.60;30.10;;;;;;4893631;29;19987;-60
2022/03/17 03:39:51;;;;;;;;;;;22.50;30.20;;;;;;4893720;29;19928;-60
2022/03/17 03:42:18;;;;;;;;;;;22.50;30.10;;;;;;4893620;29;20290;-60
2022/03/17 03:44:45;;;;;;;;;;;22.50;30.10;;;;;;4893923;29;19971;-60
2022/03/17 03:47:13;;;;;;;;;;;22.50;30.10;;;;;;4893318;29;19990;-60
2022/03/17 03:49:41;;;;;;;;;;;22.60;30.20;;;;;;4893556;29;20110;-60
2022/03/17 03:52:08;;;;;;;;;;;22.50;30.20;;;;;;4893822;29;20463;-60
2022/03/17 03:54:36;;;;;;;;;;;22.50;30.20;;;;;;4893248;29;19978;-60
2022/03/17 03:57:03;;;;;;;;;;;22.60;30.30;;;;;;4892416;29;19983;-60
2022/03/17 03:59:30;;;;;;;;;;;22.50;30.20;;;;;;4892835;29;19928;-60
2022/03/17 04:01:59;;;;;;;;;;;22.50;30.30;;;;;;4893641;29;19935;-60
2022/03/17 04:04:26;;;;;;;;;;;22.60;30.30;;;;;;4891765;29;19928;-60
2022/03/17 04:06:55;;;;;;;;;;;22.50;30.30;;;;;;4893144;29;19927;-60
2022/03/17 04:09:26;;;;;;;;;;;22.50;30.30;;;;;;4893484;29;20441;-60
2022/03/17 04:11:54;;;;;;;;;;;22.50;30.90;;;;;;4892558;29;19934;-60
2022/03/17 04:14:22;;;;;;;;;;;22.50;30.30;;;;;;4893770;29;19932;-60
2022/03/17 04:16:49;;;;;;;;;;;22.50;30.30;;;;;;4891850;29;19928;-60
2022/03/17 04:19:17;;;;;;;;;;;22.50;30.40;;;;;;4892971;29;20494;-60
2022/03/17 04:21:44;;;;;;;;;;;22.50;30.40;;;;;;4892059;29;19935;-60
2022/03/17 04:24:12;;;;;;;;;;;22.50;30.40;;;;;;4892885;29;19928;-60
2022/03/17 04:26:39;;;;;;;;;;;22.50;30.40;;;;;;4893367;29;20703;-60
2022/03/17 04:29:06;;;;;;;;;;;22.50;30.40;;;;;;4892734;29;19983;-60
2022/03/17 04:31:34;;;;;;;;;;;22.50;30.40;;;;;;4890960;29;19987;-60
2022/03/17 04:34:01;;;;;;;;;;;22.40;30.40;;;;;;4873374;29;19927;-60
2022/03/17 04:36:28;;;;;;;;;;;22.50;30.40;;;;;;4874456;29;19971;-60
2022/03/17 04:38:55;;;;;;;;;;;22.50;30.50;;;;;;4874527;29;19974;-60
2022/03/17 04:41:22;;;;;;;;;;;22.50;30.50;;;;;;4873800;29;19963;-62
2022/03/17 04:43:49;;;;;;;;;;;22.40;30.50;;;;;;4873528;29;19984;-60
2022/03/17 04:46:16;;;;;;;;;;;22.40;30.50;;;;;;4873435;29;19975;-60
2022/03/17 04:48:43;;;;;;;;;;;22.50;30.60;;;;;;4874139;29;20197;-60
2022/03/17 04:51:11;;;;;;;;;;;22.40;30.50;;;;;;4873928;29;19935;-60
2022/03/17 04:53:38;;;;;;;;;;;22.40;30.60;;;;;;4872225;29;19996;-60
2022/03/17 04:56:12;;;;;;;;;;;22.40;30.50;;;;;;4873259;29;19932;-60
2022/03/17 04:58:40;;;;;;;;;;;22.50;30.60;;;;;;4872174;29;19960;-60
2022/03/17 05:01:08;;;;;;;;;;;22.40;30.60;;;;;;4873160;29;19976;-60
2022/03/17 05:03:36;;;;;;;;;;;22.40;30.50;;;;;;4873905;29;20162;-60
2022/03/17 05:06:03;;;;;;;;;;;22.50;30.60;;;;;;4873152;29;20066;-60
2022/03/17 05:08:34;;;;;;;;;;;22.40;30.60;;;;;;4873476;29;20130;-60
2022/03/17 05:11:02;;;;;;;;;;;22.50;30.60;;;;;;4873252;29;20126;-60
2022/03/17 05:13:30;;;;;;;;;;;22.40;30.60;;;;;;4873473;29;19970;-60
2022/03/17 05:15:57;;;;;;;;;;;22.50;30.60;;;;;;4872926;29;19963;-60
2022/03/17 05:18:24;;;;;;;;;;;22.40;30.50;;;;;;4873120;29;19931;-60
2022/03/17 05:20:51;;;;;;;;;;;22.50;30.60;;;;;;4873249;29;19947;-60
2022/03/17 05:23:19;;;;;;;;;;;22.50;30.60;;;;;;4873448;29;19979;-60
2022/03/17 05:25:47;;;;;;;;;;;22.50;30.60;;;;;;4872801;29;19927;-60
2022/03/17 05:28:14;;;;;;;;;;;22.50;30.50;;;;;;4873626;29;20146;-60
2022/03/17 05:30:42;;;;;;;;;;;22.50;30.60;;;;;;4872804;29;19964;-60
2022/03/17 05:33:11;;;;;;;;;;;22.50;30.50;;;;;;4873590;29;20301;-60
2022/03/17 05:35:39;;;;;;;;;;;22.50;30.50;;;;;;4872169;29;19939;-60
2022/03/17 05:38:06;;;;;;;;;;;22.50;30.50;;;;;;4873114;29;19998;-60
2022/03/17 05:40:33;;;;;;;;;;;22.50;30.50;;;;;;4872815;29;19955;-60
2022/03/17 05:43:01;;;;;;;;;;;22.50;30.40;;;;;;4878797;29;19928;-60
2022/03/17 05:45:29;;;;;;;;;;;22.50;30.40;;;;;;4880991;29;19928;-60
2022/03/17 05:47:57;;;;;;;;;;;22.50;30.40;;;;;;4876146;29;19932;-60
2022/03/17 05:50:25;;;;;;;;;;;22.60;30.40;;;;;;4871623;29;19935;-60
2022/03/17 05:52:52;;;;;;;;;;;22.60;30.40;;;;;;4876746;29;20354;-60
2022/03/17 05:55:20;;;;;;;;;;;22.60;30.30;;;;;;4875275;29;19935;-60
2022/03/17 05:57:48;;;;;;;;;;;22.60;30.30;;;;;;4875485;29;19932;-60
2022/03/17 06:00:18;;;;;;;;;;;22.70;30.30;;;;;;4854077;29;20004;-60
2022/03/17 06:02:45;;;;;;;;;;;22.70;30.20;;;;;;4853888;29;20211;-60
2022/03/17 06:05:12;;;;;;;;;;;22.70;30.20;;;;;;4858531;29;19938;-60
2022/03/17 06:07:41;;;;;;;;;;;22.70;30.10;;;;;;4866368;29;19939;-60
2022/03/17 06:10:09;;;;;;;;;;;22.70;30.10;;;;;;4866078;29;19992;-60
2022/03/17 06:12:36;;;;;;;;;;;22.70;30.00;;;;;;4856504;29;19932;-60
2022/03/17 06:15:04;;;;;;;;;;;22.80;30.00;;;;;;4864710;29;20378;-60
2022/03/17 06:17:41;;;;;;;;;;;22.80;30.00;;;;;;4859777;29;20442;-60
2022/03/17 06:20:11;;;;;;;;;;;22.80;29.90;;;;;;4860880;29;19942;-60
2022/03/17 06:22:39;;;;;;;;;;;22.80;29.90;;;;;;4866541;29;19942;-62
2022/03/17 06:25:07;;;;;;;;;;;22.80;29.80;;;;;;4865453;29;19992;-60
2022/03/17 06:27:35;;;;;;;;;;;22.90;29.80;;;;;;4869313;29;19987;-59
2022/03/17 06:30:03;;;;;;;;;;;22.90;29.90;;;;;;4864704;29;20014;-60
2022/03/17 06:32:30;;;;;;;;;;;23.00;29.90;;;;;;4866991;29;19978;-59
2022/03/17 06:34:57;;;;;;;;;;;23.10;29.80;;;;;;4869053;29;20449;-61
2022/03/17 06:37:24;;;;;;;;;;;23.10;30.10;;;;;;4867567;29;19970;-60
2022/03/17 06:39:54;;;;;;;;;;;23.20;30.20;;;;;;4865195;29;19935;-60
2022/03/17 06:42:21;;;;;;;;;;;23.30;30.20;;;;;;4862577;29;19932;-60
2022/03/17 06:44:48;;;;;;;;;;;23.40;30.30;;;;;;4866769;29;19988;-60
2022/03/17 06:47:20;;;;;;;;;;;23.50;30.20;;;;;;4864443;29;19939;-61
2022/03/17 06:49:47;;;;;;;;;;;23.50;30.10;;;;;;4866941;29;20305;-62
2022/03/17 06:52:14;;;;;;;;;;;23.60;30.00;;;;;;4867134;29;19936;-62
2022/03/17 06:54:41;;;;;;;;;;;23.70;30.00;;;;;;4859547;29;19996;-60
2022/03/17 06:57:08;;;;;;;;;;;23.80;29.90;;;;;;4860943;29;19928;-60
2022/03/17 06:59:35;;;;;;;;;;;23.80;30.00;;;;;;4862163;29;19940;-60
2022/03/17 07:02:03;;;;;;;;;;;23.90;29.90;;;;;;4862653;29;19928;-60
2022/03/17 07:04:30;;;;;;;;;;;24.00;30.00;;;;;;4860913;29;19943;-60
2022/03/17 07:06:58;;;;;;;;;;;24.10;30.10;;;;;;4863478;29;20025;-60
2022/03/17 07:09:25;;;;;;;;;;;24.10;30.60;;;;;;4859895;29;19936;-61
2022/03/17 07:11:51;;;;;;;;;;;24.20;30.00;;;;;;4862462;29;20389;-60
2022/03/17 07:14:19;;;;;;;;;;;24.30;29.90;;;;;;4856479;29;19943;-60
2022/03/17 07:16:46;;;;;;;;;;;24.30;29.90;;;;;;4862608;29;20039;-61
2022/03/17 07:19:14;;;;;;;;;;;24.40;29.90;;;;;;4858739;29;20317;-62
2022/03/17 07:21:40;;;;;;;;;;;24.40;29.80;;;;;;4865346;29;20057;-60
2022/03/17 07:24:09;;;;;;;;;;;24.50;29.70;;;;;;4862333;29;19975;-60
2022/03/17 07:26:36;;;;;;;;;;;24.50;29.70;;;;;;4858802;29;20470;-60
2022/03/17 07:29:03;;;;;;;;;;;24.70;29.80;;;;;;4861057;29;19988;-61
2022/03/17 07:31:30;;;;;;;;;;;24.70;29.60;;;;;;4860592;29;19932;-61
2022/03/17 07:33:59;;;;;;;;;;;24.80;29.30;;;;;;4866797;29;19968;-62
2022/03/17 07:36:27;;;;;;;;;;;24.90;29.20;;;;;;4869454;29;19956;-61
2022/03/17 07:38:57;;;;;;;;;;;24.90;29.00;;;;;;4877797;29;20386;-61
2022/03/17 07:41:24;;;;;;;;;;;25.00;28.90;;;;;;4866241;29;19936;-61
2022/03/17 07:43:51;;;;;;;;;;;25.00;28.80;;;;;;4871966;29;19946;-62
2022/03/17 07:46:19;;;;;;;;;;;25.10;28.80;;;;;;4869399;29;19939;-61
2022/03/17 07:48:46;;;;;;;;;;;25.20;28.70;;;;;;4871248;29;19931;-61
2022/03/17 07:51:14;;;;;;;;;;;25.20;28.60;;;;;;4867529;29;19936;-62
2022/03/17 07:53:41;;;;;;;;;;;25.30;28.80;;;;;;4875810;29;19982;-61
2022/03/17 07:56:10;;;;;;;;;;;25.30;28.60;;;;;;4877010;29;19928;-61
2022/03/17 07:58:38;;;;;;;;;;;25.40;28.60;;;;;;4866940;29;19987;-61
2022/03/17 08:01:05;;;;;;;;;;;25.40;28.50;;;;;;4870113;29;19936;-61
2022/03/17 08:03:33;;;;;;;;;;;25.50;28.50;;;;;;4876119;29;20382;-60
2022/03/17 08:06:00;;;;;;;;;;;25.50;28.40;;;;;;4876270;29;19935;-60
2022/03/17 08:08:27;;;;;;;;;;;25.60;28.60;;;;;;4874550;29;19940;-61
2022/03/17 08:10:54;;;;;;;;;;;25.60;28.50;;;;;;4873672;29;20081;-61
2022/03/17 08:13:22;;;;;;;;;;;25.60;28.60;;;;;;4871208;29;20398;-60
2022/03/17 08:15:49;;;;;;;;;;;25.60;28.60;;;;;;4872896;29;20023;-62
2022/03/17 08:18:16;;;;;;;;;;;25.70;28.70;;;;;;4872337;29;19935;-60
2022/03/17 08:20:43;;;;;;;;;;;25.70;28.80;;;;;;4871312;29;20018;-61
2022/03/17 08:23:10;;;;;;;;;;;25.70;28.80;;;;;;4873916;29;19992;-60
2022/03/17 08:25:37;;;;;;;;;;;25.60;28.70;;;;;;4869929;29;19931;-63
2022/03/17 08:28:04;;;;;;;;;;;25.70;28.80;;;;;;4872296;29;19968;-62
2022/03/17 08:30:38;;;;;;;;;;;25.70;28.70;;;;;;4870085;29;19974;-62
2022/03/17 08:33:05;;;;;;;;;;;25.70;28.60;;;;;;4869820;29;19961;-62
2022/03/17 08:35:32;;;;;;;;;;;25.60;28.50;;;;;;4870650;29;20419;-61
2022/03/17 08:37:59;;;;;;;;;;;25.60;28.50;;;;;;4885802;29;19971;-62
2022/03/17 08:40:26;;;;;;;;;;;25.60;28.40;;;;;;4873332;29;19976;-63
2022/03/17 08:42:53;;;;;;;;;;;25.60;28.40;;;;;;4861738;29;19978;-62
2022/03/17 08:50:54;;;;;;;;;;;25.70;28.60;;;;;;4875551;29;19982;-61
2022/03/17 08:53:21;;;;;;;;;;;25.60;28.50;;;;;;4871723;29;19984;-62
2022/03/17 08:55:49;;;;;;;;;;;25.60;28.40;;;;;;4873341;29;19975;-60
2022/03/17 08:58:16;;;;;;;;;;;25.70;28.40;;;;;;4872110;29;19962;-62
2022/03/17 09:00:44;;;;;;;;;;;25.70;28.40;;;;;;4870364;29;20029;-63
2022/03/17 09:03:11;;;;;;;;;;;25.70;28.40;;;;;;4877492;29;19936;-62
2022/03/17 09:05:39;;;;;;;;;;;25.70;28.40;;;;;;4872618;29;19928;-61
2022/03/17 09:08:06;;;;;;;;;;;25.70;28.20;;;;;;4866901;29;19987;-62
2022/03/17 09:10:34;;;;;;;;;;;25.70;28.30;;;;;;4882162;29;20009;-61
2022/03/17 09:13:07;;;;;;;;;;;25.70;28.30;;;;;;4869675;29;19984;-61
2022/03/17 09:15:36;;;;;;;;;;;25.80;28.30;;;;;;4869543;29;19942;-61
2022/03/17 09:18:03;;;;;;;;;;;25.80;28.20;;;;;;4871803;29;19988;-61
2022/03/17 09:20:30;;;;;;;;;;;25.80;28.20;;;;;;4869464;29;19939;-61
2022/03/17 09:22:57;;;;;;;;;;;25.80;28.10;;;;;;4874725;29;19935;-61
2022/03/17 09:25:25;;;;;;;;;;;25.80;28.10;;;;;;4874888;29;19935;-60
2022/03/17 09:27:52;;;;;;;;;;;25.80;28.10;;;;;;4875252;29;19960;-61
2022/03/17 09:30:19;;;;;;;;;;;25.80;28.00;;;;;;4870990;29;20003;-62
2022/03/17 09:32:47;;;;;;;;;;;25.90;28.10;;;;;;4871665;29;20015;-61
2022/03/17 09:35:14;;;;;;;;;;;25.90;28.10;;;;;;4874340;29;19931;-61
2022/03/17 09:37:41;;;;;;;;;;;25.80;28.10;;;;;;4877640;29;20450;-61
2022/03/17 09:40:09;;;;;;;;;;;25.90;28.10;;;;;;4869926;29;19936;-61
2022/03/17 09:42:37;;;;;;;;;;;25.90;28.10;;;;;;4872912;29;19976;-62
2022/03/17 09:45:05;;;;;;;;;;;25.90;28.00;;;;;;4868090;29;19936;-61
2022/03/17 09:47:34;;;;;;;;;;;25.90;28.00;;;;;;4876576;29;20007;-61
2022/03/17 09:50:02;;;;;;;;;;;25.90;27.90;;;;;;4871029;29;20390;-61
2022/03/17 09:52:31;;;;;;;;;;;25.90;27.90;;;;;;4864499;29;19983;-61
2022/03/17 09:54:58;;;;;;;;;;;25.90;27.90;;;;;;4861087;29;19936;-61
2022/03/17 09:57:25;;;;;;;;;;;25.90;27.90;;;;;;4871977;29;20390;-61
2022/03/17 09:59:58;;;;;;;;;;;25.90;27.90;;;;;;4868510;29;19928;-64
2022/03/17 10:02:25;;;;;;;;;;;25.90;27.80;;;;;;4868372;29;20018;-63
2022/03/17 10:04:53;;;;;;;;;;;25.90;27.70;;;;;;4865936;29;19932;-63
2022/03/17 10:07:21;;;;;;;;;;;26.00;27.70;;;;;;4866096;29;20346;-63
2022/03/17 10:09:49;;;;;;;;;;;25.90;27.50;;;;;;4871736;29;19928;-63
2022/03/17 10:12:23;;;;;;;;;;;26.00;27.60;;;;;;4866896;29;19936;-61
2022/03/17 10:14:52;;;;;;;;;;;26.00;27.60;;;;;;4872680;29;19931;-60
2022/03/17 10:17:38;;;;;;;;;;;26.00;27.80;;;;;;4872565;29;19987;-59
2022/03/17 10:20:22;;;;;;;;;;;26.00;28.10;;;;;;4865952;29;19987;-62
2022/03/17 10:22:54;;;;;;;;;;;26.00;28.20;;;;;;4871697;29;19935;-61
2022/03/17 10:25:25;;;;;;;;;;;26.10;28.40;;;;;;4871790;29;19932;-64
2022/03/17 10:27:56;;;;;;;;;;;26.20;28.50;;;;;;4866973;29;19932;-64
2022/03/17 10:30:35;;;;;;;;;;;26.20;28.60;;;;;;4870436;29;20457;-62
2022/03/17 10:33:03;;;;;;;;;;;26.20;28.50;;;;;;4873495;29;19928;-63
2022/03/17 10:35:38;;;;;;;;;;;26.30;28.60;;;;;;4869106;29;19976;-62
2022/03/17 10:38:11;;;;;;;;;;;26.30;28.60;;;;;;4874462;29;19928;-62
2022/03/17 10:40:39;;;;;;;;;;;26.30;28.60;;;;;;4865775;29;19936;-64
2022/03/17 10:43:22;;;;;;;;;;;26.40;28.60;;;;;;4875135;29;19987;-62
2022/03/17 10:46:06;;;;;;;;;;;26.40;28.70;;;;;;4865236;29;19989;-64
2022/03/17 10:48:34;;;;;;;;;;;26.40;28.70;;;;;;4872050;29;20348;-62
2022/03/17 10:51:01;;;;;;;;;;;26.40;28.60;;;;;;4866713;29;20018;-61
2022/03/17 10:53:29;;;;;;;;;;;26.50;28.60;;;;;;4870613;29;20299;-63
2022/03/17 10:56:08;;;;;;;;;;;26.50;28.50;;;;;;4871191;29;20014;-62
2022/03/17 10:58:43;;;;;;;;;;;26.50;28.00;;;;;;4870983;29;19989;-62
2022/03/17 11:01:38;;;;;;;;;;;26.50;28.10;;;;;;4871695;29;19934;-63
2022/03/17 11:04:05;;;;;;;;;;;26.50;28.00;;;;;;4872063;29;19939;-62
2022/03/17 11:06:33;;;;;;;;;;;26.50;27.80;;;;;;4880329;29;19942;-62
2022/03/17 11:09:01;;;;;;;;;;;26.60;28.30;;;;;;4876574;29;20011;-62
2022/03/17 11:11:29;;;;;;;;;;;26.50;27.70;;;;;;4871560;29;19936;-61
2022/03/17 11:13:57;;;;;;;;;;;26.50;27.60;;;;;;4869185;29;19940;-62
2022/03/17 11:16:43;;;;;;;;;;;26.60;27.70;;;;;;4883738;29;19967;-62
2022/03/17 11:19:15;;;;;;;;;;;26.60;27.50;;;;;;4861187;29;20301;-62
2022/03/17 11:21:46;;;;;;;;;;;26.60;27.40;;;;;;4871108;29;19932;-63
2022/03/17 11:24:20;;;;;;;;;;;26.60;27.50;;;;;;4870081;29;19940;-64
2022/03/17 11:26:47;;;;;;;;;;;26.60;27.40;;;;;;4869105;29;19980;-63
2022/03/17 11:29:17;;;;;;;;;;;26.60;27.40;;;;;;4870626;29;19928;-63
2022/03/17 11:31:58;;;;;;;;;;;26.60;27.30;;;;;;4867123;29;19935;-63
2022/03/17 11:34:46;;;;;;;;;;;26.60;27.30;;;;;;4868871;29;19936;-64
2022/03/17 11:37:24;;;;;;;;;;;26.60;27.30;;;;;;4871710;29;19931;-64
2022/03/17 11:39:58;;;;;;;;;;;26.60;27.30;;;;;;4887190;29;19936;-63
2022/03/17 11:42:43;;;;;;;;;;;26.60;27.30;;;;;;4870453;29;19932;-64
2022/03/17 11:45:29;;;;;;;;;;;26.50;27.20;;;;;;4873684;29;19960;-64
2022/03/17 11:47:57;;;;;;;;;;;26.50;25.80;;;;;;4875123;29;20429;-63
2022/03/17 11:50:28;;;;;;;;;;;26.30;25.00;;;;;;4873778;29;20404;-64
2022/03/17 11:52:56;;;;;;;;;;;26.20;25.80;;;;;;4869698;29;19934;-64
2022/03/17 11:55:32;;;;;;;;;;;26.10;26.10;;;;;;4875712;29;19964;-63
2022/03/17 11:58:19;;;;;;;;;;;26.10;26.50;;;;;;4871026;29;19947;-63
2022/03/17 12:00:47;;;;;;;;;;;26.20;26.60;;;;;;4864605;29;19965;-68
2022/03/17 12:03:24;;;;;;;;;;;26.20;26.50;;;;;;4870699;29;19971;-65
2022/03/17 12:06:05;;;;;;;;;;;26.30;26.70;;;;;;4867010;29;19927;-66
2022/03/17 12:08:36;;;;;;;;;;;26.30;26.80;;;;;;4870673;29;20127;-66
2022/03/17 12:11:06;;;;;;;;;;;26.40;27.20;;;;;;4883452;29;20355;-65
2022/03/17 12:13:35;;;;;;;;;;;26.40;27.40;;;;;;4870676;29;19935;-66
2022/03/17 12:16:02;;;;;;;;;;;26.40;27.40;;;;;;4868205;29;19939;-63
2022/03/17 12:18:29;;;;;;;;;;;26.50;27.30;;;;;;4870424;29;19978;-66
2022/03/17 12:20:57;;;;;;;;;;;26.50;27.20;;;;;;4868925;29;19939;-66
2022/03/17 12:23:45;;;;;;;;;;;26.50;27.20;;;;;;4871432;29;19937;-63
2022/03/17 12:26:12;;;;;;;;;;;26.50;27.30;;;;;;4868255;29;20121;-63
2022/03/17 12:28:44;;;;;;;;;;;26.60;27.30;;;;;;4877975;29;19928;-64
2022/03/17 12:31:11;;;;;;;;;;;26.60;27.20;;;;;;4872627;29;19931;-65
2022/03/17 12:33:39;;;;;;;;;;;26.60;27.30;;;;;;4869598;29;19938;-64
2022/03/17 12:36:06;;;;;;;;;;;26.60;27.70;;;;;;4867114;29;19932;-64
2022/03/17 12:38:37;;;;;;;;;;;26.60;27.20;;;;;;4870733;29;19935;-64
2022/03/17 12:41:10;;;;;;;;;;;26.60;27.30;;;;;;4869442;29;20363;-63
2022/03/17 12:43:38;;;;;;;;;;;26.60;27.30;;;;;;4874309;29;20006;-63
2022/03/17 12:46:05;;;;;;;;;;;26.60;27.30;;;;;;4871575;29;19927;-64
2022/03/17 12:48:32;;;;;;;;;;;26.60;27.30;;;;;;4875745;29;20019;-63
2022/03/17 12:51:04;;;;;;;;;;;26.60;27.30;;;;;;4868535;29;19936;-64
2022/03/17 12:53:31;;;;;;;;;;;26.60;27.30;;;;;;4869768;29;19931;-64
2022/03/17 12:55:58;;;;;;;;;;;26.70;27.30;;;;;;4869366;29;19932;-65
2022/03/17 12:58:25;;;;;;;;;;;26.70;27.30;;;;;;4869401;29;19995;-68
2022/03/17 13:00:52;;;;;;;;;;;26.70;27.20;;;;;;4871886;29;19991;-65
2022/03/17 13:03:25;;;;;;;;;;;26.70;27.20;;;;;;4868786;29;19936;-66
2022/03/17 13:08:40;;;;;;;;;;;26.70;27.20;;;;;;4865332;29;19940;-64
2022/03/17 13:16:46;;;;;;;;;;;26.60;27.30;;;;;;4865516;29;20708;-64
2022/03/17 13:19:13;;;;;;;;;;;26.60;27.30;;;;;;4874888;29;19928;-59
2022/03/17 13:21:40;;;;;;;;;;;26.50;27.20;;;;;;4870099;29;20338;-59
2022/03/17 13:24:15;;;;;;;;;;;26.50;27.30;;;;;;4870709;29;19928;-63
2022/03/17 13:26:42;;;;;;;;;;;26.50;27.30;;;;;;4867816;29;19936;-64
2022/03/17 13:29:31;;;;;;;;;;;26.40;27.30;;;;;;4868502;29;19983;-63
2022/03/17 13:31:58;;;;;;;;;;;26.40;27.40;;;;;;4869271;29;19970;-63
2022/03/17 13:34:29;;;;;;;;;;;26.40;27.40;;;;;;4873145;29;20013;-63
2022/03/17 13:36:57;;;;;;;;;;;26.40;27.40;;;;;;4870804;29;20000;-63
2022/03/17 13:39:32;;;;;;;;;;;26.40;27.40;;;;;;4873052;29;20386;-63
2022/03/17 13:42:02;;;;;;;;;;;26.40;27.50;;;;;;4872864;29;20018;-64
2022/03/17 13:44:50;;;;;;;;;;;26.50;27.60;;;;;;4870183;29;20298;-63
2022/03/17 13:47:28;;;;;;;;;;;26.50;27.50;;;;;;4870094;29;19928;-63
2022/03/17 13:50:15;;;;;;;;;;;26.50;27.40;;;;;;4869630;29;19932;-63
2022/03/17 13:52:44;;;;;;;;;;;26.50;27.40;;;;;;4867960;29;20018;-64
2022/03/17 13:55:14;;;;;;;;;;;26.50;27.30;;;;;;4870149;29;19967;-62
2022/03/17 13:57:42;;;;;;;;;;;26.50;27.20;;;;;;4870975;29;20442;-64
2022/03/17 14:00:18;;;;;;;;;;;26.50;27.30;;;;;;4874479;29;19995;-66
2022/03/17 14:02:45;;;;;;;;;;;26.50;27.30;;;;;;4865281;29;20366;-63
2022/03/17 14:05:13;;;;;;;;;;;26.50;27.30;;;;;;4872782;29;20027;-64
2022/03/17 14:07:40;;;;;;;;;;;26.50;27.40;;;;;;4866174;29;19935;-63
2022/03/17 14:10:08;;;;;;;;;;;26.40;27.40;;;;;;4870043;29;19935;-66
2022/03/17 14:12:36;;;;;;;;;;;26.50;27.50;;;;;;4868909;29;20053;-65
2022/03/17 14:15:04;;;;;;;;;;;26.50;27.50;;;;;;4870035;29;19935;-68
2022/03/17 14:17:31;;;;;;;;;;;26.50;27.50;;;;;;4866283;29;19936;-64
2022/03/17 14:19:59;;;;;;;;;;;26.50;27.60;;;;;;4868459;29;19970;-65
2022/03/17 14:25:13;;;;;;;;;;;26.50;27.50;;;;;;4867265;29;19928;-63
2022/03/17 14:27:40;;;;;;;;;;;26.50;27.50;;;;;;4871178;29;19936;-62
2022/03/17 14:30:07;;;;;;;;;;;26.50;27.50;;;;;;4875467;29;19928;-64
2022/03/17 14:32:35;;;;;;;;;;;26.50;27.50;;;;;;4868311;29;19928;-65
2022/03/17 14:35:03;;;;;;;;;;;26.50;27.50;;;;;;4870155;29;19946;-66
2022/03/17 14:37:30;;;;;;;;;;;26.50;27.50;;;;;;4870114;29;20014;-64
2022/03/17 14:39:57;;;;;;;;;;;26.50;27.50;;;;;;4877570;29;20274;-64
2022/03/17 14:42:25;;;;;;;;;;;26.50;27.50;;;;;;4873942;29;19951;-64
2022/03/17 14:44:52;;;;;;;;;;;26.50;27.40;;;;;;4871891;29;19991;-65
2022/03/17 14:47:19;;;;;;;;;;;26.50;27.40;;;;;;4870394;29;19967;-66
2022/03/17 14:49:46;;;;;;;;;;;26.50;27.40;;;;;;4873261;29;19936;-65
2022/03/17 14:52:13;;;;;;;;;;;26.50;27.50;;;;;;4872552;29;19932;-65